Time;durP1;ratioP1;P1;durP2;ratioP2;P2;SDS_P1;SDS_P2;PMS_P1;PMS_P2;Temp;Humidity;BMP_temperature;BMP_pressure;BME280_temperature;BME280_humidity;BME280_pressure;Samples;Min_cycle;Max_cycle;Signal;HPM_P1;HPM_P2
2022/10/15 00:01:39;;;;;;;0.00;0.00;;;19.70;99.90;;;;;;5013508;28;20214;-71
2022/10/15 00:04:05;;;;;;;0.00;0.00;;;19.70;99.90;;;;;;5012671;28;20210;-72
2022/10/15 00:06:31;;;;;;;0.00;0.00;;;19.60;99.90;;;;;;5013256;28;20186;-70
2022/10/15 00:08:56;;;;;;;0.00;0.00;;;19.60;99.90;;;;;;5003169;28;20611;-71
2022/10/15 00:11:24;;;;;;;0.22;0.22;;;19.50;99.90;;;;;;5002203;28;20188;-71
2022/10/15 00:13:52;;;;;;;0.00;0.00;;;19.50;99.90;;;;;;5013273;28;20318;-71
2022/10/15 00:16:20;;;;;;;0.25;0.25;;;19.40;99.90;;;;;;5005975;28;20183;-71
2022/10/15 00:18:47;;;;;;;0.00;0.00;;;19.30;99.90;;;;;;5007674;28;20178;-70
2022/10/15 00:21:15;;;;;;;0.15;0.15;;;19.30;99.90;;;;;;5005134;28;20191;-71
2022/10/15 00:23:41;;;;;;;0.00;0.00;;;19.30;99.90;;;;;;4995077;28;20222;-73
2022/10/15 00:26:13;;;;;;;0.40;0.20;;;19.20;99.90;;;;;;5005092;28;20221;-75
2022/10/15 00:28:38;;;;;;;0.90;0.43;;;19.20;99.90;;;;;;5001343;28;20215;-72
2022/10/15 00:31:10;;;;;;;0.00;0.00;;;19.00;99.90;;;;;;4998524;28;20186;-73
2022/10/15 00:33:37;;;;;;;0.00;0.00;;;18.80;99.90;;;;;;5020754;28;20281;-74
2022/10/15 00:36:10;;;;;;;0.00;0.00;;;18.40;99.90;;;;;;5009143;28;20221;-73
2022/10/15 00:38:36;;;;;;;0.00;0.00;;;18.10;99.90;;;;;;4999083;28;20183;-73
2022/10/15 00:41:03;;;;;;;0.00;0.00;;;17.70;99.90;;;;;;4995720;28;20187;-74
2022/10/15 00:43:45;;;;;;;0.00;0.00;;;17.40;99.90;;;;;;5012242;28;20191;-73
2022/10/15 00:46:23;;;;;;;0.00;0.00;;;17.10;99.90;;;;;;4997837;28;20179;-72
2022/10/15 00:48:55;;;;;;;0.00;0.00;;;16.80;99.90;;;;;;5010064;28;20190;-74
2022/10/15 00:51:22;;;;;;;0.00;0.00;;;16.70;99.90;;;;;;5006079;28;20179;-75
2022/10/15 00:53:49;;;;;;;0.00;0.00;;;16.50;99.90;;;;;;4995267;28;20247;-74
2022/10/15 00:56:19;;;;;;;0.00;0.00;;;16.40;99.90;;;;;;5000533;28;20204;-73
2022/10/15 00:58:45;;;;;;;0.00;0.00;;;16.30;99.90;;;;;;4996271;28;20182;-74
2022/10/15 01:01:11;;;;;;;0.00;0.00;;;16.20;99.90;;;;;;5005950;28;20183;-74
2022/10/15 01:03:37;;;;;;;0.00;0.00;;;16.10;99.90;;;;;;4994559;28;20191;-75
2022/10/15 01:06:03;;;;;;;0.00;0.00;;;16.10;99.90;;;;;;5000595;28;20182;-75
2022/10/15 01:08:29;;;;;;;0.00;0.00;;;16.10;99.90;;;;;;4994774;28;20570;-75
2022/10/15 01:11:22;;;;;;;0.00;0.00;;;16.00;99.90;;;;;;4995358;28;20176;-74
2022/10/15 01:14:01;;;;;;;0.00;0.00;;;16.00;99.90;;;;;;4992918;28;20226;-74
2022/10/15 01:16:36;;;;;;;0.00;0.00;;;15.90;99.90;;;;;;4994145;28;20211;-73
2022/10/15 01:19:14;;;;;;;0.00;0.00;;;15.90;99.90;;;;;;4992941;28;20536;-73
2022/10/15 01:21:47;;;;;;;0.00;0.00;;;15.90;99.90;;;;;;4996565;28;20200;-73
2022/10/15 01:24:25;;;;;;;0.00;0.00;;;15.90;99.90;;;;;;4996464;28;20271;-72
2022/10/15 01:27:00;;;;;;;0.00;0.00;;;15.80;99.90;;;;;;4994882;28;20175;-73
2022/10/15 01:29:50;;;;;;;0.00;0.00;;;15.80;99.90;;;;;;4995998;28;20226;-73
2022/10/15 01:32:25;;;;;;;0.00;0.00;;;15.70;99.90;;;;;;5004000;28;20665;-73
2022/10/15 01:35:04;;;;;;;0.00;0.00;;;15.70;99.90;;;;;;5006277;28;20299;-73
2022/10/15 01:37:35;;;;;;;0.00;0.00;;;15.60;99.90;;;;;;5001734;28;20182;-73
2022/10/15 01:40:24;;;;;;;0.00;0.00;;;15.50;99.90;;;;;;5004702;28;20209;-73
2022/10/15 01:42:56;;;;;;;0.10;0.10;;;15.50;99.90;;;;;;5007889;28;20190;-73
2022/10/15 01:45:35;;;;;;;0.00;0.00;;;15.40;99.90;;;;;;4994382;28;20179;-74
2022/10/15 01:48:08;;;;;;;0.00;0.00;;;15.40;99.90;;;;;;4994876;28;20215;-73
2022/10/15 01:50:36;;;;;;;0.00;0.00;;;15.40;99.90;;;;;;5002809;28;20385;-73
2022/10/15 01:53:05;;;;;;;0.00;0.00;;;15.40;99.90;;;;;;4996710;28;20218;-74
2022/10/15 01:55:32;;;;;;;0.00;0.00;;;15.30;99.90;;;;;;4994554;28;20701;-73
2022/10/15 01:57:59;;;;;;;0.00;0.00;;;15.30;99.90;;;;;;5005016;28;20194;-73
2022/10/15 02:00:24;;;;;;;0.00;0.00;;;15.40;99.90;;;;;;5011767;28;20198;-74
2022/10/15 02:02:50;;;;;;;0.00;0.00;;;15.30;99.90;;;;;;4996970;28;20535;-74
2022/10/15 02:05:29;;;;;;;0.00;0.00;;;15.30;99.90;;;;;;5014541;28;20213;-74
2022/10/15 02:08:02;;;;;;;0.00;0.00;;;15.30;99.90;;;;;;4996952;28;20233;-74
2022/10/15 02:10:48;;;;;;;0.20;0.20;;;15.40;99.90;;;;;;5013674;28;20186;-74
2022/10/15 02:13:31;;;;;;;0.00;0.00;;;15.40;99.90;;;;;;5001366;28;20677;-74
2022/10/15 02:15:56;;;;;;;0.00;0.00;;;15.30;99.90;;;;;;5014000;28;20666;-74
2022/10/15 02:18:46;;;;;;;0.00;0.00;;;15.40;99.90;;;;;;5014667;28;20175;-74
2022/10/15 02:21:16;;;;;;;0.00;0.00;;;15.40;99.90;;;;;;5010053;28;20182;-73
2022/10/15 02:23:51;;;;;;;0.00;0.00;;;15.40;99.90;;;;;;5002551;28;20655;-74
2022/10/15 02:26:18;;;;;;;0.00;0.00;;;15.50;99.90;;;;;;4996062;28;20187;-74
2022/10/15 02:28:49;;;;;;;0.00;0.00;;;15.50;99.90;;;;;;5006310;28;20301;-75
2022/10/15 02:31:18;;;;;;;0.00;0.00;;;15.60;99.90;;;;;;5012275;28;20187;-76
2022/10/15 02:33:44;;;;;;;0.00;0.00;;;15.60;99.90;;;;;;5014923;28;20685;-75
2022/10/15 02:36:10;;;;;;;0.00;0.00;;;15.70;99.90;;;;;;5006762;28;20182;-74
2022/10/15 02:38:39;;;;;;;0.00;0.00;;;15.70;99.90;;;;;;5013448;28;20182;-76
2022/10/15 02:41:07;;;;;;;0.00;0.00;;;15.70;99.90;;;;;;5007763;28;20186;-76
2022/10/15 02:43:34;;;;;;;0.00;0.00;;;15.80;99.90;;;;;;5002347;28;20187;-75
2022/10/15 02:45:59;;;;;;;0.00;0.00;;;15.80;99.90;;;;;;5001859;28;20179;-75
2022/10/15 02:48:25;;;;;;;0.00;0.00;;;15.80;99.90;;;;;;5011648;28;20533;-74
2022/10/15 02:50:50;;;;;;;0.00;0.00;;;15.80;99.90;;;;;;5009320;28;20185;-75
2022/10/15 02:53:16;;;;;;;0.00;0.00;;;15.80;99.90;;;;;;4997345;28;20211;-75
2022/10/15 02:55:41;;;;;;;0.00;0.00;;;15.80;99.90;;;;;;5015133;28;20193;-74
2022/10/15 02:58:07;;;;;;;0.00;0.00;;;15.80;99.90;;;;;;5012592;28;20179;-74
2022/10/15 03:00:32;;;;;;;0.00;0.00;;;15.80;99.90;;;;;;4995234;28;20179;-73
2022/10/15 03:02:58;;;;;;;0.00;0.00;;;15.90;99.90;;;;;;5008144;28;20229;-75
2022/10/15 03:05:23;;;;;;;0.00;0.00;;;15.80;99.90;;;;;;5009006;28;20218;-76
2022/10/15 03:07:49;;;;;;;0.03;0.03;;;15.80;99.90;;;;;;5002677;28;20215;-74
2022/10/15 03:10:15;;;;;;;0.00;0.00;;;15.80;99.90;;;;;;5003389;28;20229;-75
2022/10/15 03:12:40;;;;;;;0.00;0.00;;;15.90;99.90;;;;;;5013480;28;20233;-74
2022/10/15 03:15:06;;;;;;;0.00;0.00;;;15.80;99.90;;;;;;5002251;28;20265;-75
2022/10/15 03:17:32;;;;;;;0.00;0.00;;;15.90;99.90;;;;;;4995046;28;20236;-75
2022/10/15 03:19:57;;;;;;;0.00;0.00;;;15.80;99.90;;;;;;5008567;28;20645;-74
2022/10/15 03:22:23;;;;;;;0.00;0.00;;;15.90;99.90;;;;;;5014397;28;20642;-75
2022/10/15 03:24:48;;;;;;;0.00;0.00;;;15.90;99.90;;;;;;4998631;28;20214;-75
2022/10/15 03:27:14;;;;;;;0.00;0.00;;;15.90;99.90;;;;;;4994476;28;20293;-75
2022/10/15 03:29:39;;;;;;;0.00;0.00;;;15.90;99.90;;;;;;5005568;28;20724;-74
2022/10/15 03:32:05;;;;;;;0.00;0.00;;;15.90;99.90;;;;;;4998418;28;20217;-74
2022/10/15 03:34:31;;;;;;;0.08;0.08;;;15.90;99.90;;;;;;5008007;28;20222;-73
2022/10/15 03:36:56;;;;;;;0.00;0.00;;;15.90;99.90;;;;;;4994895;28;20191;-74
2022/10/15 03:39:22;;;;;;;0.00;0.00;;;15.90;99.90;;;;;;4996596;28;20325;-73
2022/10/15 03:41:47;;;;;;;0.00;0.00;;;15.90;99.90;;;;;;5006415;28;20238;-75
2022/10/15 03:44:13;;;;;;;0.00;0.00;;;15.90;99.90;;;;;;4998367;28;20188;-75
2022/10/15 03:46:38;;;;;;;0.00;0.00;;;15.90;99.90;;;;;;5001474;28;20649;-76
2022/10/15 03:49:04;;;;;;;0.00;0.00;;;15.90;99.90;;;;;;5007720;28;20198;-75
2022/10/15 03:51:29;;;;;;;0.00;0.00;;;15.90;99.90;;;;;;5007775;28;20195;-75
2022/10/15 03:53:55;;;;;;;0.00;0.00;;;15.90;99.90;;;;;;4998782;28;20214;-75
2022/10/15 03:56:20;;;;;;;0.00;0.00;;;15.90;99.90;;;;;;4994407;28;20195;-77
2022/10/15 03:58:46;;;;;;;0.00;0.00;;;15.90;99.90;;;;;;5004974;28;20187;-77
2022/10/15 04:01:14;;;;;;;0.00;0.00;;;15.90;99.90;;;;;;4994341;28;20186;-75
2022/10/15 04:03:40;;;;;;;0.00;0.00;;;15.90;99.90;;;;;;4997640;28;20650;-76
2022/10/15 04:06:06;;;;;;;0.00;0.00;;;15.90;99.90;;;;;;4997911;28;20263;-76
2022/10/15 04:08:32;;;;;;;0.00;0.00;;;15.90;99.90;;;;;;5003942;28;20187;-76
2022/10/15 04:11:01;;;;;;;0.00;0.00;;;15.90;99.90;;;;;;4994133;28;20187;-75
2022/10/15 04:13:27;;;;;;;0.00;0.00;;;15.90;99.90;;;;;;5003685;28;20289;-75
2022/10/15 04:15:53;;;;;;;0.00;0.00;;;15.90;99.90;;;;;;5006527;28;20641;-76
2022/10/15 04:18:20;;;;;;;0.00;0.00;;;15.90;99.90;;;;;;5001529;28;20283;-75
2022/10/15 04:20:46;;;;;;;0.00;0.00;;;15.90;99.90;;;;;;4994312;28;20179;-74
2022/10/15 04:23:12;;;;;;;0.00;0.00;;;15.90;99.90;;;;;;5002365;28;20209;-73
2022/10/15 04:25:38;;;;;;;0.00;0.00;;;15.90;99.90;;;;;;5003058;28;20179;-74
2022/10/15 04:28:03;;;;;;;0.00;0.00;;;15.90;99.90;;;;;;5004606;28;20543;-77
2022/10/15 04:30:29;;;;;;;0.00;0.00;;;15.90;99.90;;;;;;4995098;28;20662;-75
2022/10/15 04:32:54;;;;;;;0.00;0.00;;;15.90;99.90;;;;;;4998706;28;20182;-77
2022/10/15 04:35:20;;;;;;;0.00;0.00;;;15.90;99.90;;;;;;4993835;28;20194;-76
2022/10/15 04:37:46;;;;;;;0.00;0.00;;;15.90;99.90;;;;;;4998290;28;20178;-75
2022/10/15 04:40:12;;;;;;;0.00;0.00;;;15.80;99.90;;;;;;5008435;28;20569;-77
2022/10/15 04:42:38;;;;;;;0.00;0.00;;;15.80;99.90;;;;;;5011005;28;20277;-76
2022/10/15 04:45:05;;;;;;;0.00;0.00;;;15.80;99.90;;;;;;5000967;28;20180;-76
2022/10/15 04:47:30;;;;;;;0.00;0.00;;;15.80;99.90;;;;;;4992258;28;20187;-76
2022/10/15 04:49:56;;;;;;;0.00;0.00;;;15.90;99.90;;;;;;5008571;28;20573;-76
2022/10/15 04:52:21;;;;;;;0.00;0.00;;;15.90;99.90;;;;;;5007327;28;20650;-76
2022/10/15 04:54:47;;;;;;;0.00;0.00;;;15.90;99.90;;;;;;5011661;28;20260;-75
2022/10/15 04:57:12;;;;;;;0.00;0.00;;;15.80;99.90;;;;;;5000205;28;20178;-75
2022/10/15 04:59:38;;;;;;;0.00;0.00;;;15.80;99.90;;;;;;4993150;28;20179;-76
2022/10/15 05:02:03;;;;;;;0.00;0.00;;;15.80;99.90;;;;;;5000143;28;20183;-76
2022/10/15 05:04:29;;;;;;;0.00;0.00;;;15.80;99.90;;;;;;4993250;28;20266;-77
2022/10/15 05:06:54;;;;;;;0.00;0.00;;;15.80;99.90;;;;;;5000174;28;20265;-77
2022/10/15 05:09:20;;;;;;;0.00;0.00;;;15.80;99.90;;;;;;5009173;28;20180;-77
2022/10/15 05:11:46;;;;;;;0.00;0.00;;;15.80;99.90;;;;;;5008124;28;20209;-77
2022/10/15 05:14:12;;;;;;;0.00;0.00;;;15.90;99.90;;;;;;5003409;28;20253;-77
2022/10/15 05:16:37;;;;;;;0.00;0.00;;;15.90;99.90;;;;;;5010068;28;20190;-78
2022/10/15 05:19:07;;;;;;;0.00;0.00;;;15.80;99.90;;;;;;5002504;28;20285;-77
2022/10/15 05:21:34;;;;;;;0.00;0.00;;;15.90;99.90;;;;;;5011215;28;20669;-79
2022/10/15 05:24:00;;;;;;;0.00;0.00;;;15.90;99.90;;;;;;5002289;28;20191;-78
2022/10/15 05:26:27;;;;;;;0.00;0.00;;;16.00;99.90;;;;;;5012316;28;20179;-77
2022/10/15 05:28:55;;;;;;;0.00;0.00;;;15.90;99.90;;;;;;5000658;28;20547;-77
2022/10/15 05:31:22;;;;;;;0.00;0.00;;;15.90;99.90;;;;;;5008917;28;20253;-77
2022/10/15 05:33:50;;;;;;;0.00;0.00;;;15.90;99.90;;;;;;4994687;28;20211;-77
2022/10/15 05:36:17;;;;;;;0.00;0.00;;;15.90;99.90;;;;;;5007459;28;20274;-77
2022/10/15 05:38:43;;;;;;;0.00;0.00;;;15.90;99.90;;;;;;4994244;28;20191;-78
2022/10/15 05:41:09;;;;;;;0.00;0.00;;;15.90;99.90;;;;;;5012527;28;20190;-78
2022/10/15 05:43:34;;;;;;;0.00;0.00;;;15.90;99.90;;;;;;4996892;28;20209;-77
2022/10/15 05:46:00;;;;;;;0.00;0.00;;;15.80;99.90;;;;;;5009403;28;20183;-77
2022/10/15 05:48:26;;;;;;;0.00;0.00;;;15.90;99.90;;;;;;5013011;28;20695;-78
2022/10/15 05:50:52;;;;;;;0.00;0.00;;;15.90;99.90;;;;;;5013025;28;20187;-77
2022/10/15 05:53:18;;;;;;;0.00;0.00;;;15.90;99.90;;;;;;5014077;28;20203;-77
2022/10/15 05:55:44;;;;;;;0.00;0.00;;;15.90;99.90;;;;;;5010466;28;20182;-77
2022/10/15 05:58:09;;;;;;;0.00;0.00;;;15.90;99.90;;;;;;4998512;28;20183;-73
2022/10/15 06:00:35;;;;;;;0.00;0.00;;;15.90;99.90;;;;;;4999661;28;20191;-76
2022/10/15 06:03:00;;;;;;;0.00;0.00;;;15.80;99.90;;;;;;4999140;28;20194;-77
2022/10/15 06:05:26;;;;;;;0.00;0.00;;;15.80;99.90;;;;;;5003378;28;20187;-74
2022/10/15 06:07:52;;;;;;;0.08;0.08;;;15.80;99.90;;;;;;4992635;28;20171;-71
2022/10/15 06:10:17;;;;;;;0.00;0.00;;;15.80;99.90;;;;;;4995326;28;20187;-77
2022/10/15 06:12:49;;;;;;;0.00;0.00;;;15.80;99.90;;;;;;4993252;28;20701;-75
2022/10/15 06:15:15;;;;;;;0.65;0.55;;;15.80;99.90;;;;;;5008807;28;20222;-75
2022/10/15 06:17:41;;;;;;;0.00;0.00;;;15.90;99.90;;;;;;4999272;28;20191;-72
2022/10/15 06:20:06;;;;;;;0.00;0.00;;;15.90;99.90;;;;;;4992530;28;20184;-77
2022/10/15 06:22:33;;;;;;;0.20;0.20;;;15.90;99.90;;;;;;4997070;28;20188;-73
2022/10/15 06:24:58;;;;;;;0.00;0.00;;;15.90;99.90;;;;;;4992584;28;20658;-72
2022/10/15 06:27:24;;;;;;;0.00;0.00;;;15.90;99.90;;;;;;5000751;28;20185;-71
2022/10/15 06:29:49;;;;;;;0.00;0.00;;;15.80;99.90;;;;;;5011447;28;20704;-75
2022/10/15 06:32:15;;;;;;;0.00;0.00;;;15.80;99.90;;;;;;4997625;28;20236;-72
2022/10/15 06:34:40;;;;;;;0.30;0.30;;;16.00;99.90;;;;;;5002032;28;20292;-69
2022/10/15 06:37:06;;;;;;;0.32;0.32;;;16.00;99.90;;;;;;4994190;28;20179;-73
2022/10/15 06:39:32;;;;;;;0.20;0.20;;;16.00;99.90;;;;;;4997472;28;20207;-72
2022/10/15 06:41:57;;;;;;;0.25;0.25;;;16.00;99.90;;;;;;4997098;28;20179;-72
2022/10/15 06:44:23;;;;;;;0.40;0.40;;;16.00;99.90;;;;;;5006612;28;20237;-74
2022/10/15 06:46:49;;;;;;;0.40;0.40;;;16.00;99.90;;;;;;5005207;28;20170;-74
2022/10/15 06:49:14;;;;;;;0.00;0.00;;;16.00;99.90;;;;;;5015478;28;20198;-73
2022/10/15 06:51:40;;;;;;;0.10;0.10;;;16.10;99.90;;;;;;5009161;28;20184;-69
2022/10/15 06:54:05;;;;;;;0.00;0.00;;;16.20;99.90;;;;;;5013266;28;20217;-73
2022/10/15 06:56:31;;;;;;;0.00;0.00;;;16.20;99.90;;;;;;5014835;28;20175;-68
2022/10/15 06:58:56;;;;;;;0.20;0.10;;;16.20;99.90;;;;;;5012380;28;20718;-68
2022/10/15 07:01:22;;;;;;;0.00;0.00;;;16.30;99.90;;;;;;5009346;28;20175;-74
2022/10/15 07:03:51;;;;;;;0.20;0.20;;;16.40;99.90;;;;;;4998718;28;20684;-76
2022/10/15 07:06:17;;;;;;;0.47;0.45;;;16.50;99.90;;;;;;5015323;28;20183;-72
2022/10/15 07:08:43;;;;;;;0.20;0.20;;;16.60;99.90;;;;;;5003663;28;20183;-72
2022/10/15 07:11:10;;;;;;;0.35;0.35;;;16.70;99.90;;;;;;5014208;28;20266;-76
2022/10/15 07:13:36;;;;;;;0.00;0.00;;;16.70;99.90;;;;;;5005566;28;20218;-73
2022/10/15 07:16:08;;;;;;;0.00;0.00;;;16.60;99.90;;;;;;4995332;28;20198;-72
2022/10/15 07:18:34;;;;;;;0.00;0.00;;;16.50;99.90;;;;;;5007710;28;20175;-72
2022/10/15 07:21:00;;;;;;;0.00;0.00;;;16.30;99.90;;;;;;5002015;28;20178;-72
2022/10/15 07:23:27;;;;;;;0.00;0.00;;;16.20;99.90;;;;;;5009121;28;20207;-73
2022/10/15 07:25:52;;;;;;;0.00;0.00;;;16.10;99.90;;;;;;5015483;28;20525;-72
2022/10/15 07:28:18;;;;;;;0.00;0.00;;;16.00;99.90;;;;;;5007045;28;20223;-71
2022/10/15 07:30:43;;;;;;;0.00;0.00;;;16.00;99.90;;;;;;5001835;28;20191;-70
2022/10/15 07:33:09;;;;;;;0.00;0.00;;;15.90;99.90;;;;;;4999961;28;20257;-71
2022/10/15 07:35:36;;;;;;;0.00;0.00;;;15.90;99.90;;;;;;5002424;28;20285;-73
2022/10/15 07:38:02;;;;;;;0.00;0.00;;;15.90;99.90;;;;;;4997175;28;20218;-73
2022/10/15 07:40:28;;;;;;;0.08;0.08;;;15.90;99.90;;;;;;5011745;28;20187;-75
2022/10/15 07:42:55;;;;;;;0.00;0.00;;;15.90;99.90;;;;;;5003274;28;20171;-73
2022/10/15 07:45:22;;;;;;;0.00;0.00;;;15.90;99.90;;;;;;4997535;28;20665;-71
2022/10/15 07:47:47;;;;;;;0.00;0.00;;;16.00;99.90;;;;;;4995109;28;20184;-72
2022/10/15 07:50:13;;;;;;;0.00;0.00;;;16.00;99.90;;;;;;5007224;28;20182;-76
2022/10/15 07:52:38;;;;;;;0.13;0.13;;;16.10;99.90;;;;;;5003314;28;20210;-74
2022/10/15 07:55:04;;;;;;;0.35;0.35;;;16.10;99.90;;;;;;5008856;28;20250;-72
2022/10/15 07:57:30;;;;;;;1.30;1.23;;;16.20;99.90;;;;;;5004206;28;20621;-71
2022/10/15 07:59:55;;;;;;;0.05;0.05;;;16.20;99.90;;;;;;5008230;28;20181;-68
2022/10/15 08:02:21;;;;;;;0.40;0.40;;;16.30;99.90;;;;;;5013685;28;20183;-67
2022/10/15 08:04:47;;;;;;;0.00;0.00;;;16.20;99.90;;;;;;5011705;28;20178;-70
2022/10/15 08:07:12;;;;;;;0.20;0.20;;;16.30;99.90;;;;;;5010402;28;20186;-71
2022/10/15 08:09:38;;;;;;;0.50;0.50;;;16.30;99.90;;;;;;5001654;28;20199;-68
2022/10/15 08:12:05;;;;;;;1.02;0.57;;;16.30;99.90;;;;;;5005825;28;20178;-68
2022/10/15 08:14:34;;;;;;;0.05;0.05;;;16.60;99.90;;;;;;5001761;28;20223;-69
2022/10/15 08:17:02;;;;;;;0.10;0.10;;;16.80;99.90;;;;;;5010217;28;20238;-70
2022/10/15 08:19:27;;;;;;;0.00;0.00;;;17.00;99.90;;;;;;5005568;28;20183;-72
2022/10/15 08:21:53;;;;;;;0.00;0.00;;;17.00;99.90;;;;;;4996178;28;20523;-72
2022/10/15 08:24:18;;;;;;;0.00;0.00;;;17.00;99.90;;;;;;4996749;28;20215;-67
2022/10/15 08:26:45;;;;;;;0.00;0.00;;;16.90;99.90;;;;;;4994007;28;20536;-66
2022/10/15 08:29:11;;;;;;;0.00;0.00;;;16.80;99.90;;;;;;5008774;28;20384;-74
2022/10/15 08:31:37;;;;;;;0.00;0.00;;;16.80;99.90;;;;;;5003537;28;20678;-70
2022/10/15 08:34:03;;;;;;;0.00;0.00;;;16.70;99.90;;;;;;4995052;28;20211;-69
2022/10/15 08:36:29;;;;;;;0.00;0.00;;;16.70;99.90;;;;;;5006102;28;20274;-70
2022/10/15 08:38:54;;;;;;;0.00;0.00;;;16.70;99.90;;;;;;5010675;28;20179;-70
2022/10/15 08:41:41;;;;;;;0.40;0.40;;;16.60;99.90;;;;;;4998583;28;20183;-72
2022/10/15 08:44:22;;;;;;;0.80;0.68;;;16.80;99.90;;;;;;5010055;28;20186;-68
2022/10/15 08:46:53;;;;;;;0.13;0.13;;;17.10;99.90;;;;;;4994657;28;20180;-72
2022/10/15 08:49:49;;;;;;;0.10;0.10;;;17.40;99.90;;;;;;4998299;28;20190;-71
2022/10/15 08:52:24;;;;;;;0.05;0.05;;;17.80;99.90;;;;;;5006915;28;20187;-70
2022/10/15 08:54:50;;;;;;;0.08;0.08;;;18.00;99.90;;;;;;5000776;28;20217;-69
2022/10/15 08:57:25;;;;;;;0.00;0.00;;;18.00;99.90;;;;;;5012924;28;20175;-69
2022/10/15 08:59:57;;;;;;;0.00;0.00;;;18.00;99.90;;;;;;5001810;28;20768;-69
2022/10/15 09:02:29;;;;;;;0.00;0.00;;;17.70;99.90;;;;;;5003004;28;20237;-68
2022/10/15 09:05:25;;;;;;;0.00;0.00;;;17.60;99.90;;;;;;4993368;28;20270;-69
2022/10/15 09:08:21;;;;;;;0.00;0.00;;;17.40;99.90;;;;;;4996966;28;20202;-68
2022/10/15 09:10:54;;;;;;;0.00;0.00;;;17.30;99.90;;;;;;5006249;28;20685;-67
2022/10/15 09:13:33;;;;;;;0.00;0.00;;;17.20;99.90;;;;;;5003125;28;21436;-68
2022/10/15 09:16:04;;;;;;;0.00;0.00;;;17.20;99.90;;;;;;5000916;28;20178;-69
2022/10/15 09:18:34;;;;;;;0.00;0.00;;;17.20;99.90;;;;;;5012630;28;20182;-69
2022/10/15 09:21:03;;;;;;;0.25;0.25;;;17.20;99.90;;;;;;5008946;28;20304;-69
2022/10/15 09:23:29;;;;;;;0.00;0.00;;;17.30;99.90;;;;;;5011879;28;20217;-68
2022/10/15 09:26:16;;;;;;;0.55;0.55;;;17.40;99.90;;;;;;5011617;28;20175;-68
2022/10/15 09:28:47;;;;;;;0.00;0.00;;;17.30;99.90;;;;;;5010899;28;20306;-69
2022/10/15 09:31:18;;;;;;;0.00;0.00;;;17.30;99.90;;;;;;5006304;28;20181;-68
2022/10/15 09:33:53;;;;;;;0.00;0.00;;;17.20;99.90;;;;;;5005375;28;20563;-68
2022/10/15 09:36:33;;;;;;;0.00;0.00;;;17.10;99.90;;;;;;4994797;28;20796;-69
2022/10/15 09:39:02;;;;;;;0.00;0.00;;;17.00;99.90;;;;;;4992642;28;20203;-69
2022/10/15 09:41:55;;;;;;;0.20;0.20;;;16.90;99.90;;;;;;5005810;28;20225;-69
2022/10/15 09:44:23;;;;;;;0.00;0.00;;;17.00;99.90;;;;;;4993184;28;20205;-70
2022/10/15 09:46:50;;;;;;;0.00;0.00;;;17.00;99.90;;;;;;4999231;28;20179;-68
2022/10/15 09:49:22;;;;;;;0.15;0.15;;;17.00;99.90;;;;;;4994717;28;20236;-72
2022/10/15 09:52:10;;;;;;;0.00;0.00;;;17.00;99.90;;;;;;5003235;28;20191;-70
2022/10/15 09:55:00;;;;;;;0.00;0.00;;;17.20;99.90;;;;;;5005861;28;20215;-70
2022/10/15 09:57:26;;;;;;;0.00;0.00;;;17.30;99.90;;;;;;4992876;28;20285;-70
2022/10/15 09:59:59;;;;;;;0.00;0.00;;;17.50;99.90;;;;;;4992802;28;20270;-69
2022/10/15 10:02:25;;;;;;;0.15;0.15;;;17.80;99.90;;;;;;4992735;28;20718;-69
2022/10/15 10:04:52;;;;;;;0.00;0.00;;;17.90;99.90;;;;;;4991615;28;20186;-69
2022/10/15 10:07:35;;;;;;;0.00;0.00;;;18.00;99.90;;;;;;4992800;28;20179;-70
2022/10/15 10:10:20;;;;;;;0.10;0.10;;;18.10;99.90;;;;;;4992822;28;20203;-69
2022/10/15 10:12:46;;;;;;;0.10;0.10;;;18.30;99.90;;;;;;4992804;28;20642;-69
2022/10/15 10:15:20;;;;;;;0.00;0.00;;;18.60;99.90;;;;;;4992623;28;20222;-69
2022/10/15 10:17:54;;;;;;;0.22;0.22;;;18.70;99.90;;;;;;4992758;28;20182;-70
2022/10/15 10:20:31;;;;;;;0.00;0.00;;;18.80;99.90;;;;;;4993714;28;20183;-68
2022/10/15 10:22:58;;;;;;;0.00;0.00;;;18.80;99.90;;;;;;4996499;28;20577;-69
2022/10/15 10:25:41;;;;;;;0.45;0.20;;;18.70;99.90;;;;;;4996438;28;20588;-69
2022/10/15 10:28:12;;;;;;;0.10;0.10;;;18.70;99.90;;;;;;4996318;28;20184;-69
2022/10/15 10:30:52;;;;;;;0.00;0.00;;;18.70;99.90;;;;;;4996353;28;20187;-69
2022/10/15 10:33:35;;;;;;;0.00;0.00;;;18.50;99.90;;;;;;4996167;28;20217;-69
2022/10/15 10:36:01;;;;;;;0.00;0.00;;;18.30;99.90;;;;;;4996409;28;20215;-69
2022/10/15 10:38:40;;;;;;;0.00;0.00;;;18.20;99.90;;;;;;4996225;28;20254;-69
2022/10/15 10:41:08;;;;;;;0.00;0.00;;;18.10;99.90;;;;;;4996222;28;20187;-69
2022/10/15 10:43:52;;;;;;;0.00;0.00;;;18.00;99.90;;;;;;4996319;28;20192;-69
2022/10/15 10:46:20;;;;;;;0.00;0.00;;;18.20;99.90;;;;;;4996194;28;20374;-69
2022/10/15 10:48:48;;;;;;;0.00;0.00;;;18.30;99.90;;;;;;4996146;28;20540;-69
2022/10/15 10:51:17;;;;;;;0.00;0.00;;;18.40;99.90;;;;;;4995834;28;20760;-69
2022/10/15 10:53:51;;;;;;;0.00;0.00;;;18.60;99.90;;;;;;4996008;28;20238;-68
2022/10/15 10:56:21;;;;;;;0.00;0.00;;;18.60;99.90;;;;;;4995922;28;20229;-68
2022/10/15 10:58:53;;;;;;;0.00;0.00;;;18.80;99.90;;;;;;4995993;28;20171;-69
2022/10/15 11:01:18;;;;;;;0.00;0.00;;;18.80;99.90;;;;;;4995761;28;20207;-69
2022/10/15 11:03:44;;;;;;;0.00;0.00;;;18.90;99.90;;;;;;4995781;28;20230;-69
2022/10/15 11:06:26;;;;;;;0.00;0.00;;;19.10;99.90;;;;;;4995736;28;20693;-69
2022/10/15 11:09:11;;;;;;;0.00;0.00;;;19.10;99.90;;;;;;4995660;28;20267;-69
2022/10/15 11:12:03;;;;;;;0.00;0.00;;;19.10;99.90;;;;;;4995701;28;20174;-69
2022/10/15 11:15:03;;;;;;;0.00;0.00;;;19.00;99.90;;;;;;4995394;28;20267;-68
2022/10/15 11:17:43;;;;;;;0.00;0.00;;;19.00;99.90;;;;;;4994139;28;20202;-68
2022/10/15 11:20:26;;;;;;;0.00;0.00;;;19.30;99.90;;;;;;4995543;28;20242;-68
2022/10/15 11:23:10;;;;;;;0.10;0.10;;;19.50;99.90;;;;;;4995374;28;20218;-68
2022/10/15 11:25:52;;;;;;;0.00;0.00;;;19.40;99.90;;;;;;4995428;28;20184;-68
2022/10/15 11:28:41;;;;;;;0.45;0.45;;;19.30;99.90;;;;;;4994032;28;20590;-69
2022/10/15 11:31:45;;;;;;;0.10;0.10;;;19.30;99.90;;;;;;4993612;28;20215;-68
2022/10/15 11:34:28;;;;;;;0.00;0.00;;;19.20;99.90;;;;;;4995003;28;20625;-68
2022/10/15 11:37:00;;;;;;;0.13;0.13;;;19.10;99.90;;;;;;4995035;28;20175;-69
2022/10/15 11:39:32;;;;;;;0.00;0.00;;;19.20;99.90;;;;;;4995157;28;20175;-68
2022/10/15 11:42:34;;;;;;;0.00;0.00;;;19.10;99.90;;;;;;4995219;28;20183;-68
2022/10/15 11:45:26;;;;;;;0.40;0.30;;;19.10;99.90;;;;;;4995103;28;20704;-68
2022/10/15 11:48:08;;;;;;;0.70;0.70;;;19.00;99.90;;;;;;4994816;28;20202;-69
2022/10/15 11:50:43;;;;;;;0.20;0.20;;;18.80;99.90;;;;;;4994786;28;20187;-68
2022/10/15 11:53:12;;;;;;;1.65;1.55;;;18.70;99.90;;;;;;4994914;28;20168;-68
2022/10/15 11:55:47;;;;;;;0.20;0.20;;;18.70;99.90;;;;;;4994787;28;20196;-68
2022/10/15 11:58:29;;;;;;;0.00;0.00;;;18.70;99.90;;;;;;4994775;28;20569;-69
2022/10/15 12:01:04;;;;;;;0.10;0.10;;;18.70;99.90;;;;;;4994780;28;20176;-68
2022/10/15 12:03:35;;;;;;;0.00;0.00;;;18.70;99.90;;;;;;4994601;28;20683;-70
2022/10/15 12:06:15;;;;;;;0.00;0.00;;;18.80;99.90;;;;;;4994667;28;20176;-68
2022/10/15 12:08:42;;;;;;;0.30;0.30;;;18.90;99.90;;;;;;4994600;28;20171;-68
2022/10/15 12:11:27;;;;;;;0.30;0.30;;;19.00;99.90;;;;;;4994570;28;20638;-69
2022/10/15 12:14:06;;;;;;;0.05;0.05;;;19.00;99.90;;;;;;4994327;28;20199;-69
2022/10/15 12:17:10;;;;;;;0.00;0.00;;;19.00;99.90;;;;;;4994390;28;20180;-68
2022/10/15 12:19:49;;;;;;;0.00;0.00;;;19.00;99.90;;;;;;4986553;28;20187;-68
2022/10/15 12:22:36;;;;;;;0.77;0.77;;;19.00;99.90;;;;;;4994238;28;20183;-68
2022/10/15 12:25:02;;;;;;;0.10;0.10;;;19.10;99.90;;;;;;4994455;28;20291;-68
2022/10/15 12:27:36;;;;;;;0.38;0.38;;;19.20;99.90;;;;;;4994153;28;20208;-68
2022/10/15 12:30:01;;;;;;;0.10;0.10;;;19.40;99.90;;;;;;4994159;28;20219;-68
2022/10/15 12:32:37;;;;;;;0.00;0.00;;;19.50;99.90;;;;;;4994063;28;20694;-68
2022/10/15 12:35:19;;;;;;;0.08;0.08;;;19.50;99.90;;;;;;4994240;28;20230;-68
2022/10/15 12:37:47;;;;;;;0.00;0.00;;;19.40;99.90;;;;;;4994041;28;20235;-68
2022/10/15 12:40:27;;;;;;;0.00;0.00;;;19.40;99.90;;;;;;4993820;28;20605;-68
2022/10/15 12:43:01;;;;;;;0.03;0.03;;;19.30;99.90;;;;;;4993571;28;20198;-68
2022/10/15 12:45:39;;;;;;;0.75;0.73;;;19.20;99.90;;;;;;4993839;28;20170;-68
2022/10/15 12:48:05;;;;;;;0.00;0.00;;;19.20;99.90;;;;;;4993872;28;20186;-68
2022/10/15 12:50:33;;;;;;;0.52;0.52;;;19.20;99.90;;;;;;4993692;28;20179;-68
2022/10/15 12:53:21;;;;;;;0.47;0.47;;;19.20;99.90;;;;;;4993788;28;20259;-68
2022/10/15 12:56:10;;;;;;;0.00;0.00;;;19.10;99.90;;;;;;4993557;28;20195;-68
2022/10/15 12:58:46;;;;;;;0.00;0.00;;;19.10;99.90;;;;;;4993692;28;20212;-68
2022/10/15 13:01:14;;;;;;;0.00;0.00;;;19.10;99.90;;;;;;4993502;28;20170;-68
2022/10/15 13:03:47;;;;;;;0.75;0.75;;;19.00;99.90;;;;;;5009997;28;20193;-68
2022/10/15 13:06:26;;;;;;;0.32;0.32;;;18.90;99.90;;;;;;5010464;28;20174;-70